sensor_id;sensor_type;location;lat;lon;timestamp;pressure;altitude;pressure_sealevel;temperature;humidity
10079;BME280;5078;42.544;22.966;2023-07-31T00:01:06;93576.22;;;21.28;100.00
10079;BME280;5078;42.544;22.966;2023-07-31T00:03:33;93563.66;;;20.78;100.00
10079;BME280;5078;42.544;22.966;2023-07-31T00:06:00;93561.38;;;21.08;100.00
10079;BME280;5078;42.544;22.966;2023-07-31T00:08:28;93555.03;;;21.15;100.00
10079;BME280;5078;42.544;22.966;2023-07-31T00:10:54;93546.72;;;20.99;100.00
10079;BME280;5078;42.544;22.966;2023-07-31T00:13:21;93546.22;;;21.02;100.00
10079;BME280;5078;42.544;22.966;2023-07-31T00:15:48;93554.53;;;21.01;100.00
10079;BME280;5078;42.544;22.966;2023-07-31T00:18:15;93531.53;;;20.93;100.00
10079;BME280;5078;42.544;22.966;2023-07-31T00:20:42;93537.66;;;20.88;100.00
10079;BME280;5078;42.544;22.966;2023-07-31T00:23:08;93532.69;;;20.80;100.00
10079;BME280;5078;42.544;22.966;2023-07-31T00:25:37;93531.16;;;21.06;100.00
10079;BME280;5078;42.544;22.966;2023-07-31T00:28:03;93536.81;;;21.05;100.00
10079;BME280;5078;42.544;22.966;2023-07-31T00:30:30;93534.63;;;21.02;100.00
10079;BME280;5078;42.544;22.966;2023-07-31T00:32:57;93526.72;;;20.78;100.00
10079;BME280;5078;42.544;22.966;2023-07-31T00:35:24;93539.84;;;20.92;100.00
10079;BME280;5078;42.544;22.966;2023-07-31T00:37:50;93538.38;;;21.01;100.00
10079;BME280;5078;42.544;22.966;2023-07-31T00:40:17;93537.19;;;20.58;100.00
10079;BME280;5078;42.544;22.966;2023-07-31T00:42:45;93545.34;;;20.97;100.00
10079;BME280;5078;42.544;22.966;2023-07-31T00:47:38;93532.34;;;20.94;100.00
10079;BME280;5078;42.544;22.966;2023-07-31T00:50:07;93529.16;;;20.97;100.00
10079;BME280;5078;42.544;22.966;2023-07-31T00:52:34;93528.38;;;21.18;100.00
10079;BME280;5078;42.544;22.966;2023-07-31T00:55:01;93517.56;;;20.96;100.00
10079;BME280;5078;42.544;22.966;2023-07-31T00:57:28;93520.66;;;21.05;100.00
10079;BME280;5078;42.544;22.966;2023-07-31T00:59:56;93521.63;;;20.99;100.00
10079;BME280;5078;42.544;22.966;2023-07-31T01:02:23;93525.47;;;21.03;100.00
10079;BME280;5078;42.544;22.966;2023-07-31T01:04:50;93522.31;;;20.38;100.00
10079;BME280;5078;42.544;22.966;2023-07-31T01:07:22;93523.84;;;20.17;100.00
10079;BME280;5078;42.544;22.966;2023-07-31T01:09:59;93531.00;;;19.95;100.00
10079;BME280;5078;42.544;22.966;2023-07-31T01:12:30;93536.88;;;20.09;100.00
10079;BME280;5078;42.544;22.966;2023-07-31T01:15:09;93541.41;;;20.20;100.00
10079;BME280;5078;42.544;22.966;2023-07-31T01:17:37;93534.19;;;20.09;100.00
10079;BME280;5078;42.544;22.966;2023-07-31T01:20:08;93528.88;;;20.14;100.00
10079;BME280;5078;42.544;22.966;2023-07-31T01:23:03;93538.34;;;20.16;100.00
10079;BME280;5078;42.544;22.966;2023-07-31T01:25:54;93532.75;;;20.52;100.00
10079;BME280;5078;42.544;22.966;2023-07-31T01:28:25;93541.41;;;20.20;100.00
10079;BME280;5078;42.544;22.966;2023-07-31T01:30:55;93541.59;;;20.01;100.00
10079;BME280;5078;42.544;22.966;2023-07-31T01:33:24;93539.66;;;19.97;100.00
10079;BME280;5078;42.544;22.966;2023-07-31T01:35:52;93545.41;;;19.89;100.00
10079;BME280;5078;42.544;22.966;2023-07-31T01:38:20;93542.88;;;20.28;100.00
10079;BME280;5078;42.544;22.966;2023-07-31T01:40:51;93552.91;;;20.49;100.00
10079;BME280;5078;42.544;22.966;2023-07-31T01:43:18;93552.53;;;20.74;100.00
10079;BME280;5078;42.544;22.966;2023-07-31T01:45:45;93556.13;;;20.80;100.00
10079;BME280;5078;42.544;22.966;2023-07-31T01:48:12;93560.13;;;20.77;100.00
10079;BME280;5078;42.544;22.966;2023-07-31T01:50:38;93557.69;;;20.59;100.00
10079;BME280;5078;42.544;22.966;2023-07-31T01:53:05;93562.75;;;20.55;100.00
10079;BME280;5078;42.544;22.966;2023-07-31T01:55:32;93557.69;;;20.59;100.00
10079;BME280;5078;42.544;22.966;2023-07-31T01:58:00;93557.22;;;20.62;100.00
10079;BME280;5078;42.544;22.966;2023-07-31T02:00:27;93557.56;;;20.54;100.00
10079;BME280;5078;42.544;22.966;2023-07-31T02:02:53;93568.00;;;20.33;100.00
10079;BME280;5078;42.544;22.966;2023-07-31T02:05:20;93553.81;;;20.38;100.00
10079;BME280;5078;42.544;22.966;2023-07-31T02:07:47;93556.66;;;20.48;100.00
10079;BME280;5078;42.544;22.966;2023-07-31T02:10:14;93545.75;;;20.72;100.00
10079;BME280;5078;42.544;22.966;2023-07-31T02:12:40;93553.09;;;20.76;100.00
10079;BME280;5078;42.544;22.966;2023-07-31T02:15:09;93557.69;;;20.76;100.00
10079;BME280;5078;42.544;22.966;2023-07-31T02:17:36;93557.03;;;20.85;100.00
10079;BME280;5078;42.544;22.966;2023-07-31T02:20:03;93560.88;;;20.89;100.00
10079;BME280;5078;42.544;22.966;2023-07-31T02:22:30;93558.16;;;20.89;100.00
10079;BME280;5078;42.544;22.966;2023-07-31T02:24:56;93555.72;;;20.88;100.00
10079;BME280;5078;42.544;22.966;2023-07-31T02:27:22;93554.47;;;20.96;100.00
10079;BME280;5078;42.544;22.966;2023-07-31T02:29:52;93562.19;;;21.09;100.00
10079;BME280;5078;42.544;22.966;2023-07-31T02:32:21;93555.06;;;20.98;100.00
10079;BME280;5078;42.544;22.966;2023-07-31T02:34:47;93546.09;;;20.75;100.00
10079;BME280;5078;42.544;22.966;2023-07-31T02:37:14;93557.19;;;20.79;100.00
10079;BME280;5078;42.544;22.966;2023-07-31T02:39:41;93558.25;;;20.78;100.00
10079;BME280;5078;42.544;22.966;2023-07-31T02:42:07;93549.66;;;20.81;100.00
10079;BME280;5078;42.544;22.966;2023-07-31T02:44:34;93557.34;;;20.89;100.00
10079;BME280;5078;42.544;22.966;2023-07-31T02:47:01;93552.44;;;20.35;100.00
10079;BME280;5078;42.544;22.966;2023-07-31T02:49:29;93556.50;;;20.38;100.00
10079;BME280;5078;42.544;22.966;2023-07-31T02:51:56;93562.34;;;20.18;100.00
10079;BME280;5078;42.544;22.966;2023-07-31T02:54:23;93561.38;;;20.70;100.00
10079;BME280;5078;42.544;22.966;2023-07-31T02:56:50;93562.25;;;20.75;100.00
10079;BME280;5078;42.544;22.966;2023-07-31T02:59:17;93532.75;;;20.35;100.00
10079;BME280;5078;42.544;22.966;2023-07-31T03:01:44;93559.13;;;20.50;100.00
10079;BME280;5078;42.544;22.966;2023-07-31T03:04:10;93553.75;;;20.50;100.00
10079;BME280;5078;42.544;22.966;2023-07-31T03:06:39;93563.97;;;20.64;100.00
10079;BME280;5078;42.544;22.966;2023-07-31T03:09:05;93567.88;;;20.74;100.00
10079;BME280;5078;42.544;22.966;2023-07-31T03:11:32;93562.09;;;20.65;100.00
10079;BME280;5078;42.544;22.966;2023-07-31T03:13:59;93569.19;;;20.71;100.00
10079;BME280;5078;42.544;22.966;2023-07-31T03:16:25;93557.56;;;20.54;100.00
10079;BME280;5078;42.544;22.966;2023-07-31T03:18:52;93563.78;;;20.37;100.00
10079;BME280;5078;42.544;22.966;2023-07-31T03:21:19;93569.59;;;21.36;100.00
10079;BME280;5078;42.544;22.966;2023-07-31T03:23:47;93584.31;;;21.45;100.00
10079;BME280;5078;42.544;22.966;2023-07-31T03:26:14;93584.16;;;21.35;100.00
10079;BME280;5078;42.544;22.966;2023-07-31T03:28:40;93577.72;;;21.19;100.00
10079;BME280;5078;42.544;22.966;2023-07-31T03:31:07;93583.69;;;21.21;100.00
10079;BME280;5078;42.544;22.966;2023-07-31T03:33:34;93581.94;;;21.31;100.00
10079;BME280;5078;42.544;22.966;2023-07-31T03:36:01;93577.13;;;21.17;100.00
10079;BME280;5078;42.544;22.966;2023-07-31T03:38:28;93586.59;;;20.97;100.00
10079;BME280;5078;42.544;22.966;2023-07-31T03:40:56;93591.41;;;20.95;100.00
10079;BME280;5078;42.544;22.966;2023-07-31T03:43:24;93588.78;;;21.00;100.00
10079;BME280;5078;42.544;22.966;2023-07-31T03:45:51;93587.69;;;21.01;100.00
10079;BME280;5078;42.544;22.966;2023-07-31T03:48:18;93600.94;;;21.03;100.00
10079;BME280;5078;42.544;22.966;2023-07-31T03:50:44;93600.13;;;21.02;100.00
10079;BME280;5078;42.544;22.966;2023-07-31T03:53:11;93593.28;;;20.95;100.00
10079;BME280;5078;42.544;22.966;2023-07-31T03:55:38;93592.63;;;21.04;100.00
10079;BME280;5078;42.544;22.966;2023-07-31T03:58:06;93598.66;;;20.95;100.00
10079;BME280;5078;42.544;22.966;2023-07-31T04:00:32;93585.59;;;20.86;100.00
10079;BME280;5078;42.544;22.966;2023-07-31T04:02:59;93603.56;;;20.81;100.00
10079;BME280;5078;42.544;22.966;2023-07-31T04:05:26;93603.56;;;20.98;100.00
10079;BME280;5078;42.544;22.966;2023-07-31T04:07:53;93600.28;;;20.96;100.00
10079;BME280;5078;42.544;22.966;2023-07-31T04:10:19;93605.09;;;20.94;100.00
10079;BME280;5078;42.544;22.966;2023-07-31T04:12:46;93610.91;;;21.02;100.00
10079;BME280;5078;42.544;22.966;2023-07-31T04:15:14;93612.00;;;20.84;100.00
10079;BME280;5078;42.544;22.966;2023-07-31T04:17:41;93616.22;;;20.97;100.00
10079;BME280;5078;42.544;22.966;2023-07-31T04:20:09;93617.69;;;20.88;100.00
10079;BME280;5078;42.544;22.966;2023-07-31T04:22:36;93613.69;;;20.57;100.00
10079;BME280;5078;42.544;22.966;2023-07-31T04:25:03;93621.44;;;20.41;100.00
10079;BME280;5078;42.544;22.966;2023-07-31T04:27:30;93616.94;;;20.59;100.00
10079;BME280;5078;42.544;22.966;2023-07-31T04:29:56;93618.34;;;20.78;100.00
10079;BME280;5078;42.544;22.966;2023-07-31T04:32:24;93620.94;;;21.41;100.00
10079;BME280;5078;42.544;22.966;2023-07-31T04:34:51;93620.47;;;22.10;100.00
10079;BME280;5078;42.544;22.966;2023-07-31T04:37:18;93624.34;;;22.73;100.00
10079;BME280;5078;42.544;22.966;2023-07-31T04:39:45;93624.88;;;22.97;100.00
10079;BME280;5078;42.544;22.966;2023-07-31T04:42:11;93610.59;;;23.44;100.00
10079;BME280;5078;42.544;22.966;2023-07-31T04:44:38;93611.97;;;23.47;100.00
10079;BME280;5078;42.544;22.966;2023-07-31T04:47:05;93595.16;;;23.40;100.00
10079;BME280;5078;42.544;22.966;2023-07-31T04:49:33;93606.19;;;23.81;100.00
10079;BME280;5078;42.544;22.966;2023-07-31T04:52:00;93603.25;;;23.82;100.00
10079;BME280;5078;42.544;22.966;2023-07-31T04:54:26;93601.84;;;23.75;100.00
10079;BME280;5078;42.544;22.966;2023-07-31T04:56:53;93605.72;;;23.89;100.00
10079;BME280;5078;42.544;22.966;2023-07-31T04:59:20;93601.41;;;24.03;100.00
10079;BME280;5078;42.544;22.966;2023-07-31T05:01:46;93608.88;;;24.44;100.00
10079;BME280;5078;42.544;22.966;2023-07-31T05:04:13;93610.28;;;24.72;100.00
10079;BME280;5078;42.544;22.966;2023-07-31T05:06:42;93595.91;;;25.07;100.00
10079;BME280;5078;42.544;22.966;2023-07-31T05:09:08;93604.53;;;25.71;93.94
10079;BME280;5078;42.544;22.966;2023-07-31T05:11:36;93614.28;;;25.92;90.14
10079;BME280;5078;42.544;22.966;2023-07-31T05:14:02;93613.03;;;26.29;83.48
10079;BME280;5078;42.544;22.966;2023-07-31T05:16:29;93601.56;;;25.62;88.58
10079;BME280;5078;42.544;22.966;2023-07-31T05:18:56;93608.19;;;24.06;98.56
10079;BME280;5078;42.544;22.966;2023-07-31T05:21:22;93600.59;;;24.03;99.10
10079;BME280;5078;42.544;22.966;2023-07-31T05:23:51;93595.94;;;24.97;89.05
10079;BME280;5078;42.544;22.966;2023-07-31T05:26:17;93598.59;;;23.73;98.31
10079;BME280;5078;42.544;22.966;2023-07-31T05:28:44;93602.47;;;23.92;100.00
10079;BME280;5078;42.544;22.966;2023-07-31T05:31:11;93601.25;;;23.67;96.03
10079;BME280;5078;42.544;22.966;2023-07-31T05:33:37;93607.03;;;24.75;92.90
10079;BME280;5078;42.544;22.966;2023-07-31T05:36:04;93607.28;;;24.73;89.36
10079;BME280;5078;42.544;22.966;2023-07-31T05:38:31;93608.41;;;24.83;89.14
10079;BME280;5078;42.544;22.966;2023-07-31T05:40:59;93604.03;;;25.43;81.82
10079;BME280;5078;42.544;22.966;2023-07-31T05:43:26;93602.13;;;25.64;76.69
10079;BME280;5078;42.544;22.966;2023-07-31T05:45:52;93614.53;;;25.91;73.31
10079;BME280;5078;42.544;22.966;2023-07-31T05:48:19;93608.88;;;25.77;73.47
10079;BME280;5078;42.544;22.966;2023-07-31T05:50:46;93616.44;;;25.95;71.66
10079;BME280;5078;42.544;22.966;2023-07-31T05:53:12;93614.81;;;25.94;70.97
10079;BME280;5078;42.544;22.966;2023-07-31T05:55:39;93622.44;;;25.87;71.59
10079;BME280;5078;42.544;22.966;2023-07-31T05:58:07;93618.13;;;25.66;74.50
10079;BME280;5078;42.544;22.966;2023-07-31T06:00:34;93613.78;;;25.59;72.10
10079;BME280;5078;42.544;22.966;2023-07-31T06:03:00;93620.84;;;25.60;73.49
10079;BME280;5078;42.544;22.966;2023-07-31T06:05:27;93623.34;;;25.31;76.75
10079;BME280;5078;42.544;22.966;2023-07-31T06:07:55;93626.25;;;25.91;69.52
10079;BME280;5078;42.544;22.966;2023-07-31T06:10:22;93618.16;;;25.40;72.82
10079;BME280;5078;42.544;22.966;2023-07-31T06:12:48;93617.97;;;26.22;66.49
10079;BME280;5078;42.544;22.966;2023-07-31T06:15:17;93625.16;;;26.47;59.29
10079;BME280;5078;42.544;22.966;2023-07-31T06:17:44;93627.19;;;26.26;60.06
10079;BME280;5078;42.544;22.966;2023-07-31T06:20:11;93625.38;;;25.96;58.92
10079;BME280;5078;42.544;22.966;2023-07-31T06:22:38;93625.91;;;26.03;58.72
10079;BME280;5078;42.544;22.966;2023-07-31T06:25:05;93636.03;;;26.47;57.60
10079;BME280;5078;42.544;22.966;2023-07-31T06:27:32;93634.13;;;26.47;55.54
10079;BME280;5078;42.544;22.966;2023-07-31T06:29:59;93629.69;;;26.07;58.07
10079;BME280;5078;42.544;22.966;2023-07-31T06:32:27;93632.44;;;26.67;56.60
10079;BME280;5078;42.544;22.966;2023-07-31T06:34:54;93629.03;;;26.85;55.44
10079;BME280;5078;42.544;22.966;2023-07-31T06:37:20;93622.66;;;25.96;59.50
10079;BME280;5078;42.544;22.966;2023-07-31T06:39:47;93613.88;;;26.24;57.19
10079;BME280;5078;42.544;22.966;2023-07-31T06:42:14;93617.00;;;26.97;53.82
10079;BME280;5078;42.544;22.966;2023-07-31T06:44:40;93619.72;;;26.47;55.08
10079;BME280;5078;42.544;22.966;2023-07-31T06:47:07;93596.97;;;27.17;53.39
10079;BME280;5078;42.544;22.966;2023-07-31T06:49:35;93606.09;;;28.13;51.14
10079;BME280;5078;42.544;22.966;2023-07-31T06:52:02;93603.00;;;28.20;49.76
10079;BME280;5078;42.544;22.966;2023-07-31T06:54:29;93602.25;;;27.37;52.01
10079;BME280;5078;42.544;22.966;2023-07-31T06:56:56;93603.31;;;27.41;51.82
10079;BME280;5078;42.544;22.966;2023-07-31T06:59:22;93597.22;;;27.49;51.27
10079;BME280;5078;42.544;22.966;2023-07-31T07:01:49;93603.56;;;27.69;52.02
10079;BME280;5078;42.544;22.966;2023-07-31T07:04:16;93603.69;;;28.31;49.82
10079;BME280;5078;42.544;22.966;2023-07-31T07:06:44;93609.19;;;27.53;50.34
10079;BME280;5078;42.544;22.966;2023-07-31T07:09:11;93596.28;;;28.12;48.82
10079;BME280;5078;42.544;22.966;2023-07-31T07:11:37;93600.72;;;28.08;49.63
10079;BME280;5078;42.544;22.966;2023-07-31T07:14:04;93605.78;;;28.39;46.73
10079;BME280;5078;42.544;22.966;2023-07-31T07:16:31;93613.63;;;28.40;47.48
10079;BME280;5078;42.544;22.966;2023-07-31T07:18:58;93615.50;;;27.73;48.82
10079;BME280;5078;42.544;22.966;2023-07-31T07:21:24;93605.09;;;28.71;47.62
10079;BME280;5078;42.544;22.966;2023-07-31T07:23:52;93606.41;;;29.12;46.01
10079;BME280;5078;42.544;22.966;2023-07-31T07:26:19;93602.53;;;28.37;48.88
10079;BME280;5078;42.544;22.966;2023-07-31T07:28:46;93597.13;;;28.32;48.11
10079;BME280;5078;42.544;22.966;2023-07-31T07:31:13;93607.09;;;28.66;48.82
10079;BME280;5078;42.544;22.966;2023-07-31T07:33:39;93604.47;;;28.74;47.77
10079;BME280;5078;42.544;22.966;2023-07-31T07:36:06;93608.47;;;28.63;47.27
10079;BME280;5078;42.544;22.966;2023-07-31T07:38:35;93612.06;;;28.77;44.50
10079;BME280;5078;42.544;22.966;2023-07-31T07:41:04;93609.59;;;29.33;43.23
10079;BME280;5078;42.544;22.966;2023-07-31T07:43:30;93616.06;;;29.04;43.40
10079;BME280;5078;42.544;22.966;2023-07-31T07:45:57;93618.66;;;28.33;42.29
10079;BME280;5078;42.544;22.966;2023-07-31T07:48:24;93623.09;;;28.05;44.94
10079;BME280;5078;42.544;22.966;2023-07-31T07:50:51;93617.81;;;28.57;44.67
10079;BME280;5078;42.544;22.966;2023-07-31T07:53:18;93618.50;;;28.25;44.95
10079;BME280;5078;42.544;22.966;2023-07-31T07:55:45;93612.97;;;28.92;43.48
10079;BME280;5078;42.544;22.966;2023-07-31T07:58:13;93597.56;;;28.63;43.42
10079;BME280;5078;42.544;22.966;2023-07-31T08:00:39;93623.50;;;27.64;44.50
10079;BME280;5078;42.544;22.966;2023-07-31T08:03:06;93628.84;;;26.77;48.42
10079;BME280;5078;42.544;22.966;2023-07-31T08:05:33;93626.28;;;26.90;48.30
10079;BME280;5078;42.544;22.966;2023-07-31T08:08:00;93630.28;;;27.38;47.58
10079;BME280;5078;42.544;22.966;2023-07-31T08:10:26;93630.94;;;27.24;49.42
10079;BME280;5078;42.544;22.966;2023-07-31T08:12:53;93622.72;;;27.88;47.11
10079;BME280;5078;42.544;22.966;2023-07-31T08:15:21;93622.53;;;28.27;45.18
10079;BME280;5078;42.544;22.966;2023-07-31T08:17:48;93631.81;;;27.49;46.86
10079;BME280;5078;42.544;22.966;2023-07-31T08:20:15;93629.81;;;27.60;47.61
10079;BME280;5078;42.544;22.966;2023-07-31T08:22:42;93630.72;;;27.50;47.42
10079;BME280;5078;42.544;22.966;2023-07-31T08:25:08;93632.09;;;26.79;48.99
10079;BME280;5078;42.544;22.966;2023-07-31T08:27:35;93620.56;;;27.31;47.20
10079;BME280;5078;42.544;22.966;2023-07-31T08:30:03;93630.47;;;27.75;46.42
10079;BME280;5078;42.544;22.966;2023-07-31T08:32:31;93627.00;;;28.42;44.94
10079;BME280;5078;42.544;22.966;2023-07-31T08:34:57;93621.13;;;28.73;44.50
10079;BME280;5078;42.544;22.966;2023-07-31T08:37:24;93632.31;;;27.56;47.47
10079;BME280;5078;42.544;22.966;2023-07-31T08:39:51;93620.16;;;27.72;47.73
10079;BME280;5078;42.544;22.966;2023-07-31T08:42:19;93630.88;;;27.35;47.62
10079;BME280;5078;42.544;22.966;2023-07-31T08:44:46;93631.25;;;27.52;47.15
10079;BME280;5078;42.544;22.966;2023-07-31T08:47:14;93632.44;;;27.99;46.03
10079;BME280;5078;42.544;22.966;2023-07-31T08:49:43;93642.19;;;27.47;46.88
10079;BME280;5078;42.544;22.966;2023-07-31T08:52:10;93631.69;;;27.64;45.46
10079;BME280;5078;42.544;22.966;2023-07-31T08:54:37;93636.41;;;27.24;47.07
10079;BME280;5078;42.544;22.966;2023-07-31T08:57:04;93623.19;;;28.43;44.51
10079;BME280;5078;42.544;22.966;2023-07-31T08:59:32;93624.47;;;28.70;43.08
10079;BME280;5078;42.544;22.966;2023-07-31T09:02:05;93619.75;;;28.56;42.32
10079;BME280;5078;42.544;22.966;2023-07-31T09:04:32;93633.25;;;28.67;42.92
10079;BME280;5078;42.544;22.966;2023-07-31T09:07:02;93621.53;;;28.42;42.07
10079;BME280;5078;42.544;22.966;2023-07-31T09:09:29;93623.34;;;28.28;43.22
10079;BME280;5078;42.544;22.966;2023-07-31T09:11:57;93597.56;;;28.63;42.89
10079;BME280;5078;42.544;22.966;2023-07-31T09:14:30;93610.50;;;29.28;41.71
10079;BME280;5078;42.544;22.966;2023-07-31T09:16:58;93624.06;;;27.90;43.29
10079;BME280;5078;42.544;22.966;2023-07-31T09:19:27;93629.09;;;26.75;46.61
10079;BME280;5078;42.544;22.966;2023-07-31T09:21:53;93616.97;;;27.36;45.18
10079;BME280;5078;42.544;22.966;2023-07-31T09:24:28;93614.84;;;28.10;44.42
10079;BME280;5078;42.544;22.966;2023-07-31T09:26:57;93623.31;;;27.85;43.99
10079;BME280;5078;42.544;22.966;2023-07-31T09:29:25;93619.94;;;28.41;44.38
10079;BME280;5078;42.544;22.966;2023-07-31T09:31:53;93607.84;;;29.23;41.58
10079;BME280;5078;42.544;22.966;2023-07-31T09:34:28;93609.56;;;29.52;41.25
10079;BME280;5078;42.544;22.966;2023-07-31T09:36:58;93607.53;;;29.43;41.66
10079;BME280;5078;42.544;22.966;2023-07-31T09:39:29;93609.81;;;29.36;41.15
10079;BME280;5078;42.544;22.966;2023-07-31T09:41:57;93605.44;;;29.21;41.20
10079;BME280;5078;42.544;22.966;2023-07-31T09:44:37;93611.34;;;28.72;42.42
10079;BME280;5078;42.544;22.966;2023-07-31T09:47:04;93608.22;;;28.97;41.77
10079;BME280;5078;42.544;22.966;2023-07-31T09:49:31;93610.31;;;28.87;40.44
10079;BME280;5078;42.544;22.966;2023-07-31T09:51:57;93600.44;;;28.72;40.17
10079;BME280;5078;42.544;22.966;2023-07-31T09:54:25;93584.66;;;28.69;40.24
10079;BME280;5078;42.544;22.966;2023-07-31T09:56:54;93612.88;;;28.78;40.60
10079;BME280;5078;42.544;22.966;2023-07-31T09:59:22;93610.47;;;28.76;40.68
10079;BME280;5078;42.544;22.966;2023-07-31T10:01:49;93612.22;;;28.48;41.75
10079;BME280;5078;42.544;22.966;2023-07-31T10:04:17;93605.94;;;28.48;40.87
10079;BME280;5078;42.544;22.966;2023-07-31T10:06:49;93591.44;;;28.71;40.40
10079;BME280;5078;42.544;22.966;2023-07-31T10:09:18;93596.38;;;29.07;40.53
10079;BME280;5078;42.544;22.966;2023-07-31T10:11:47;93583.69;;;29.30;39.78
10079;BME280;5078;42.544;22.966;2023-07-31T10:14:19;93593.53;;;29.78;38.71
10079;BME280;5078;42.544;22.966;2023-07-31T10:16:47;93589.94;;;29.63;38.89
10079;BME280;5078;42.544;22.966;2023-07-31T10:19:14;93586.31;;;29.02;38.65
10079;BME280;5078;42.544;22.966;2023-07-31T10:21:42;93597.88;;;28.37;39.14
10079;BME280;5078;42.544;22.966;2023-07-31T10:24:09;93589.44;;;28.58;38.91
10079;BME280;5078;42.544;22.966;2023-07-31T10:26:37;93589.34;;;28.82;39.52
10079;BME280;5078;42.544;22.966;2023-07-31T10:29:06;93589.44;;;28.77;38.61
10079;BME280;5078;42.544;22.966;2023-07-31T10:31:34;93586.34;;;28.65;39.13
10079;BME280;5078;42.544;22.966;2023-07-31T10:34:01;93580.97;;;28.78;39.13
10079;BME280;5078;42.544;22.966;2023-07-31T10:36:29;93578.03;;;29.40;38.68
10079;BME280;5078;42.544;22.966;2023-07-31T10:38:56;93573.38;;;29.74;38.03
10079;BME280;5078;42.544;22.966;2023-07-31T10:41:28;93578.16;;;30.09;37.84
10079;BME280;5078;42.544;22.966;2023-07-31T10:43:57;93571.94;;;30.18;36.65
10079;BME280;5078;42.544;22.966;2023-07-31T10:46:24;93570.53;;;30.20;36.82
10079;BME280;5078;42.544;22.966;2023-07-31T10:48:57;93567.63;;;29.89;36.92
10079;BME280;5078;42.544;22.966;2023-07-31T10:51:32;93566.09;;;30.24;35.39
10079;BME280;5078;42.544;22.966;2023-07-31T10:54:10;93573.47;;;30.10;33.96
10079;BME280;5078;42.544;22.966;2023-07-31T10:56:38;93571.16;;;30.03;34.54
10079;BME280;5078;42.544;22.966;2023-07-31T10:59:05;93564.50;;;29.96;34.97
10079;BME280;5078;42.544;22.966;2023-07-31T11:01:52;93552.06;;;30.90;34.71
10079;BME280;5078;42.544;22.966;2023-07-31T11:04:25;93565.44;;;30.55;34.89
10079;BME280;5078;42.544;22.966;2023-07-31T11:06:56;93546.84;;;30.02;36.61
10079;BME280;5078;42.544;22.966;2023-07-31T11:09:24;93560.47;;;29.46;36.24
10079;BME280;5078;42.544;22.966;2023-07-31T11:11:53;93549.66;;;29.09;37.05
10079;BME280;5078;42.544;22.966;2023-07-31T11:14:23;93556.22;;;29.54;37.23
10079;BME280;5078;42.544;22.966;2023-07-31T11:16:52;93544.84;;;29.80;36.77
10079;BME280;5078;42.544;22.966;2023-07-31T11:19:23;93557.59;;;29.84;36.54
10079;BME280;5078;42.544;22.966;2023-07-31T11:21:51;93550.84;;;29.63;36.53
10079;BME280;5078;42.544;22.966;2023-07-31T11:24:18;93550.06;;;28.45;38.92
10079;BME280;5078;42.544;22.966;2023-07-31T11:26:50;93547.84;;;28.28;41.70
10079;BME280;5078;42.544;22.966;2023-07-31T11:29:16;93571.94;;;28.21;43.02
10079;BME280;5078;42.544;22.966;2023-07-31T11:31:47;93564.56;;;28.22;43.28
10079;BME280;5078;42.544;22.966;2023-07-31T11:34:14;93568.75;;;28.33;43.93
10079;BME280;5078;42.544;22.966;2023-07-31T11:36:52;93568.75;;;28.33;44.78
10079;BME280;5078;42.544;22.966;2023-07-31T11:39:19;93581.91;;;27.83;44.09
10079;BME280;5078;42.544;22.966;2023-07-31T11:41:46;93564.72;;;27.58;45.33
10079;BME280;5078;42.544;22.966;2023-07-31T11:44:12;93561.38;;;27.90;44.80
10079;BME280;5078;42.544;22.966;2023-07-31T11:46:39;93572.34;;;27.61;44.98
10079;BME280;5078;42.544;22.966;2023-07-31T11:49:06;93556.31;;;28.27;44.02
10079;BME280;5078;42.544;22.966;2023-07-31T11:51:33;93547.34;;;28.64;42.54
10079;BME280;5078;42.544;22.966;2023-07-31T11:54:01;93545.03;;;28.33;42.75
10079;BME280;5078;42.544;22.966;2023-07-31T11:56:29;93546.63;;;28.15;43.33
10079;BME280;5078;42.544;22.966;2023-07-31T11:58:58;93546.19;;;27.36;44.53
10079;BME280;5078;42.544;22.966;2023-07-31T12:01:26;93538.34;;;27.78;42.60
10079;BME280;5078;42.544;22.966;2023-07-31T12:03:54;93533.66;;;28.07;42.48
10079;BME280;5078;42.544;22.966;2023-07-31T12:06:32;93529.28;;;28.49;41.78
10079;BME280;5078;42.544;22.966;2023-07-31T12:09:03;93530.44;;;28.81;41.79
10079;BME280;5078;42.544;22.966;2023-07-31T12:11:30;93524.88;;;28.53;41.09
10079;BME280;5078;42.544;22.966;2023-07-31T12:13:57;93535.75;;;28.72;41.17
10079;BME280;5078;42.544;22.966;2023-07-31T12:16:26;93519.19;;;29.34;40.25
10079;BME280;5078;42.544;22.966;2023-07-31T12:18:53;93522.38;;;29.22;38.95
10079;BME280;5078;42.544;22.966;2023-07-31T12:21:19;93521.91;;;28.69;40.81
10079;BME280;5078;42.544;22.966;2023-07-31T12:23:46;93519.75;;;27.61;42.38
10079;BME280;5078;42.544;22.966;2023-07-31T12:26:16;93517.44;;;27.49;43.33
10079;BME280;5078;42.544;22.966;2023-07-31T12:28:44;93522.38;;;27.95;41.60
10079;BME280;5078;42.544;22.966;2023-07-31T12:31:12;93522.44;;;27.90;40.22
10079;BME280;5078;42.544;22.966;2023-07-31T12:33:40;93525.78;;;27.58;41.34
10079;BME280;5078;42.544;22.966;2023-07-31T12:36:09;93515.94;;;27.38;41.77
10079;BME280;5078;42.544;22.966;2023-07-31T12:38:36;93521.97;;;27.83;40.69
10079;BME280;5078;42.544;22.966;2023-07-31T12:41:04;93509.31;;;27.68;41.02
10079;BME280;5078;42.544;22.966;2023-07-31T12:43:33;93499.75;;;27.70;41.08
10079;BME280;5078;42.544;22.966;2023-07-31T12:46:00;93510.28;;;27.82;41.94
10079;BME280;5078;42.544;22.966;2023-07-31T12:48:27;93500.72;;;28.04;41.37
10079;BME280;5078;42.544;22.966;2023-07-31T12:50:53;93487.38;;;28.40;41.53
10079;BME280;5078;42.544;22.966;2023-07-31T12:53:20;93493.16;;;28.57;39.53
10079;BME280;5078;42.544;22.966;2023-07-31T12:55:47;93470.91;;;28.31;40.14
10079;BME280;5078;42.544;22.966;2023-07-31T12:58:14;93486.09;;;28.56;39.76
10079;BME280;5078;42.544;22.966;2023-07-31T13:00:42;93492.13;;;28.53;40.13